Time;durP1;ratioP1;P1;durP2;ratioP2;P2;SDS_P1;SDS_P2;PMS_P1;PMS_P2;Temp;Humidity;BMP_temperature;BMP_pressure;BME280_temperature;BME280_humidity;BME280_pressure;Samples;Min_cycle;Max_cycle;Signal;HPM_P1;HPM_P2
2021/01/30 00:00:01;;;;;;;31.50;16.25;;;;;;;-4.59;71.12;101780.25;4863965;29;20070;-81
2021/01/30 00:02:28;;;;;;;31.15;14.50;;;;;;;-4.12;70.80;101831.38;4863989;29;20033;-80
2021/01/30 00:04:55;;;;;;;30.88;14.13;;;;;;;-4.17;70.78;101787.66;4876537;29;20081;-80
2021/01/30 00:07:22;;;;;;;34.88;15.77;;;;;;;-2.87;71.79;102002.56;4877668;29;20491;-80
2021/01/30 00:09:50;;;;;;;24.42;13.98;;;;;;;-2.81;71.31;101966.78;4868020;29;20089;-82
2021/01/30 00:12:17;;;;;;;38.67;16.77;;;;;;;-2.81;71.49;101977.63;4870485;29;20030;-79
2021/01/30 00:14:44;;;;;;;35.55;15.25;;;;;;;-3.51;70.53;101845.34;4874944;29;20483;-81
2021/01/30 00:17:11;;;;;;;30.77;15.38;;;;;;;-2.48;69.82;101994.72;4862013;29;20376;-80
2021/01/30 00:19:39;;;;;;;35.90;16.33;;;;;;;-2.45;70.13;101982.72;4875566;29;20115;-80
2021/01/30 00:22:12;;;;;;;37.95;16.63;;;;;;;-3.49;69.68;101825.28;4878310;29;20033;-82
2021/01/30 00:24:46;;;;;;;29.45;16.90;;;;;;;-2.53;69.32;102037.63;4875521;29;20033;-78
2021/01/30 00:27:15;;;;;;;39.72;14.60;;;;;;;-3.88;69.74;101822.22;4859582;29;20037;-83
2021/01/30 00:29:43;;;;;;;36.78;17.48;;;;;;;-3.67;69.95;101859.31;4859780;29;20140;-83
2021/01/30 00:32:11;;;;;;;35.22;16.60;;;;;;;-3.63;69.52;101879.72;4875101;29;20037;-82
2021/01/30 00:34:39;;;;;;;29.23;16.98;;;;;;;-3.44;69.76;101898.84;4861275;29;20060;-83
2021/01/30 00:37:08;;;;;;;34.45;16.48;;;;;;;-4.05;70.17;101827.19;4885497;29;20048;-83
2021/01/30 00:39:37;;;;;;;43.38;19.50;;;;;;;-3.10;70.47;101972.84;4873113;29;20033;-85
2021/01/30 00:42:05;;;;;;;32.33;19.23;;;;;;;-3.47;70.69;101890.13;4873081;29;20061;-85
2021/01/30 00:44:32;;;;;;;45.47;20.25;;;;;;;-3.84;70.12;101810.16;4858617;29;20065;-84
2021/01/30 00:46:59;;;;;;;37.22;16.42;;;;;;;-2.32;70.46;102053.06;4872818;29;20033;-82
2021/01/30 00:49:27;;;;;;;44.88;19.52;;;;;;;-4.06;69.88;101762.38;4878530;29;20033;-82
2021/01/30 00:51:54;;;;;;;46.20;18.23;;;;;;;-3.04;70.53;101928.94;4876025;29;20041;-83
2021/01/30 00:54:21;;;;;;;40.10;17.83;;;;;;;-2.46;69.84;101964.75;4876289;29;20590;-82
2021/01/30 00:56:55;;;;;;;42.92;19.77;;;;;;;-1.75;69.65;102079.78;4862176;29;20044;-83
2021/01/30 00:59:23;;;;;;;41.28;18.50;;;;;;;-1.63;69.29;102058.81;4876063;29;20037;-85
2021/01/30 01:01:51;;;;;;;40.88;18.80;;;;;;;-1.52;68.81;102069.59;4861250;29;20402;-84
2021/01/30 01:04:19;;;;;;;47.08;20.13;;;;;;;-1.43;69.34;102052.47;4881860;29;20029;-84
2021/01/30 01:06:47;;;;;;;41.67;18.90;;;;;;;-2.64;70.15;101893.00;4879606;29;20032;-81
2021/01/30 01:09:14;;;;;;;46.95;21.98;;;;;;;-2.85;70.34;101868.59;4885151;29;20736;-84
2021/01/30 01:11:43;;;;;;;41.80;21.25;;;;;;;-2.74;70.38;101864.94;4874693;29;20041;-81
2021/01/30 01:14:11;;;;;;;46.20;21.65;;;;;;;-1.57;70.10;102034.72;4889016;29;20029;-86
2021/01/30 01:16:38;;;;;;;45.83;22.88;;;;;;;-2.27;69.83;101910.56;4881689;29;20033;-83
2021/01/30 01:19:05;;;;;;;32.92;19.05;;;;;;;-1.28;69.89;102052.97;4885648;29;20056;-82
2021/01/30 01:21:32;;;;;;;46.97;21.17;;;;;;;-1.72;69.10;101962.75;4878822;29;20027;-84
2021/01/30 01:23:59;;;;;;;39.40;20.13;;;;;;;-1.47;69.56;101976.81;4879382;29;20040;-80
2021/01/30 01:26:26;;;;;;;39.75;20.98;;;;;;;-1.65;69.42;101939.50;4863066;29;20048;-81
2021/01/30 01:28:53;;;;;;;40.97;19.80;;;;;;;-1.05;69.29;102043.69;4879779;29;20053;-81
2021/01/30 01:31:21;;;;;;;45.50;21.60;;;;;;;-1.13;68.61;102033.53;4887348;29;20029;-80
2021/01/30 01:33:48;;;;;;;60.45;22.15;;;;;;;-0.94;69.10;102054.44;4865087;29;20513;-81
2021/01/30 01:36:19;;;;;;;51.00;20.92;;;;;;;-1.32;68.93;102013.47;4884888;29;20745;-81
2021/01/30 01:38:46;;;;;;;40.78;19.30;;;;;;;-0.83;69.01;102058.91;4881774;29;20013;-79
2021/01/30 01:41:14;;;;;;;46.55;19.88;;;;;;;-1.48;69.30;101937.94;4886208;29;20056;-81
2021/01/30 01:43:41;;;;;;;50.55;21.30;;;;;;;-0.69;69.41;102063.88;4883398;29;20489;-79
2021/01/30 01:46:22;;;;;;;34.75;20.92;;;;;;;-1.04;69.27;102002.78;4876806;29;20041;-78
2021/01/30 01:49:03;;;;;;;36.33;19.83;;;;;;;-0.61;69.32;102054.16;4881431;29;20376;-78
2021/01/30 01:51:41;;;;;;;46.92;20.52;;;;;;;-0.54;69.09;102055.28;4884136;29;20021;-78
2021/01/30 01:54:15;;;;;;;51.58;22.70;;;;;;;-0.90;68.83;101992.47;4882497;29;20071;-80
2021/01/30 01:56:42;;;;;;;40.78;22.60;;;;;;;-0.37;69.14;102063.75;4875551;29;20080;-80
2021/01/30 01:59:13;;;;;;;46.17;23.90;;;;;;;-0.60;69.03;102007.75;4879385;29;20024;-78
2021/01/30 02:01:41;;;;;;;62.03;25.17;;;;;;;-0.95;68.86;101949.38;4881237;29;20112;-78
2021/01/30 02:04:13;;;;;;;58.72;22.83;;;;;;;-0.62;68.49;101973.53;4883968;29;20483;-77
2021/01/30 02:06:43;;;;;;;48.05;22.40;;;;;;;0.25;67.82;102060.59;4871814;29;20080;-80
2021/01/30 02:09:13;;;;;;;48.28;23.80;;;;;;;0.39;68.09;102057.38;4877574;29;20028;-78
2021/01/30 02:11:41;;;;;;;54.72;25.42;;;;;;;-0.06;67.75;101981.88;4879933;29;20496;-80
2021/01/30 02:14:10;;;;;;;48.50;24.45;;;;;;;0.44;68.50;102056.94;4886960;29;20049;-80
2021/01/30 02:16:40;;;;;;;52.08;23.58;;;;;;;0.60;68.05;102058.97;4880433;29;20040;-78
2021/01/30 02:19:27;;;;;;;41.53;19.67;;;;;;;0.75;67.89;102064.78;4879056;29;20388;-78
2021/01/30 02:21:54;;;;;;;52.13;24.73;;;;;;;0.84;67.33;102059.44;4885791;29;20039;-79
2021/01/30 02:24:36;;;;;;;44.72;25.70;;;;;;;0.97;67.22;102059.06;4877768;29;20033;-78
2021/01/30 02:27:42;;;;;;;55.05;26.67;;;;;;;0.50;67.01;101958.22;4851029;29;20041;-78
2021/01/30 02:30:35;;;;;;;50.22;25.35;;;;;;;1.01;68.24;102055.88;4878860;29;20048;-78
2021/01/30 02:33:29;;;;;;;59.83;26.88;;;;;;;1.15;68.06;102057.22;4880105;29;20037;-77
2021/01/30 02:36:13;;;;;;;58.33;27.08;;;;;;;1.28;67.01;102056.81;4886143;29;20043;-77
2021/01/30 02:38:46;;;;;;;55.28;25.60;;;;;;;1.54;66.14;102060.63;4886545;29;20039;-77
2021/01/30 02:41:25;;;;;;;53.50;26.95;;;;;;;1.11;65.27;101978.59;4865624;29;20465;-77
2021/01/30 02:43:55;;;;;;;54.53;28.08;;;;;;;1.84;65.84;102072.13;4880773;29;20025;-76
2021/01/30 02:46:29;;;;;;;65.57;25.67;;;;;;;1.90;65.61;102063.31;4887724;29;20032;-78
2021/01/30 02:49:01;;;;;;;46.92;26.08;;;;;;;1.05;65.45;101910.00;4885168;29;20436;-78
2021/01/30 02:51:34;;;;;;;50.42;25.40;;;;;;;1.59;65.59;101979.09;4883096;29;20489;-78
2021/01/30 02:54:06;;;;;;;59.83;28.85;;;;;;;2.01;65.66;102067.63;4882247;29;20476;-77
2021/01/30 02:56:33;;;;;;;57.50;28.30;;;;;;;2.09;66.25;102054.03;4887185;29;20060;-78
2021/01/30 02:59:18;;;;;;;49.88;28.92;;;;;;;2.32;64.91;102059.78;4881439;29;20029;-78
2021/01/30 03:01:45;;;;;;;58.13;27.05;;;;;;;1.77;65.73;101949.88;4877723;29;20407;-78
2021/01/30 03:04:27;;;;;;;64.95;29.63;;;;;;;2.34;65.84;102040.50;4880193;29;20025;-78
2021/01/30 03:07:00;;;;;;;73.45;31.50;;;;;;;2.46;66.95;102060.22;4888938;29;20032;-78
2021/01/30 03:09:48;;;;;;;69.72;32.78;;;;;;;2.56;68.33;102044.53;4879173;29;20039;-77
2021/01/30 03:12:59;;;;;;;72.22;37.30;;;;;;;2.70;68.05;102050.38;4878983;29;20074;-77
2021/01/30 03:15:52;;;;;;;91.43;40.33;;;;;;;2.30;69.81;101987.19;4849561;29;20108;-77
2021/01/30 03:18:25;;;;;;;94.70;42.38;;;;;;;1.72;70.81;101900.34;4878448;29;20095;-80
2021/01/30 03:20:53;;;;;;;91.68;40.75;;;;;;;2.78;71.78;102064.09;4882087;29;20653;-79
2021/01/30 03:23:21;;;;;;;83.80;43.17;;;;;;;2.70;70.39;102039.44;4869354;29;20036;-78
2021/01/30 03:25:50;;;;;;;79.63;40.00;;;;;;;2.83;70.57;102078.13;4880144;29;20076;-79
2021/01/30 03:28:17;;;;;;;91.18;46.25;;;;;;;2.65;71.10;102053.63;4888855;29;20052;-79
2021/01/30 03:30:44;;;;;;;98.07;43.30;;;;;;;2.28;71.26;101970.97;4877274;29;20044;-79
2021/01/30 03:33:12;;;;;;;88.93;42.38;;;;;;;2.15;71.22;101933.16;4879958;29;20033;-78
2021/01/30 03:35:39;;;;;;;78.53;40.13;;;;;;;2.64;70.20;102001.81;4889969;29;20034;-78
2021/01/30 03:38:06;;;;;;;108.18;47.95;;;;;;;2.45;70.46;101996.47;4883831;29;20505;-80
2021/01/30 03:40:34;;;;;;;80.97;42.97;;;;;;;2.66;69.71;102035.34;4883973;29;20397;-78
2021/01/30 03:43:01;;;;;;;87.47;40.33;;;;;;;2.82;70.24;102054.53;4883513;29;20473;-76
2021/01/30 03:45:30;;;;;;;87.38;41.90;;;;;;;2.89;69.21;102049.25;4879797;29;20139;-77
2021/01/30 03:47:57;;;;;;;79.85;43.47;;;;;;;2.49;69.38;101979.75;4888504;29;20029;-77
2021/01/30 03:50:24;;;;;;;86.63;44.78;;;;;;;3.01;68.99;102064.34;4882083;29;20040;-78
2021/01/30 03:52:52;;;;;;;96.45;43.63;;;;;;;2.95;68.48;102056.81;4868939;29;20029;-78
2021/01/30 03:55:21;;;;;;;76.55;41.40;;;;;;;2.31;69.13;101959.69;4884785;29;20394;-78
2021/01/30 03:57:48;;;;;;;83.07;41.88;;;;;;;2.49;67.98;101982.47;4889561;29;20108;-79
2021/01/30 04:00:19;;;;;;;76.30;41.17;;;;;;;3.01;68.07;102063.47;4878965;29;20530;-78
2021/01/30 04:02:47;;;;;;;88.15;42.58;;;;;;;2.29;67.90;101944.47;4882302;29;20039;-78
2021/01/30 04:05:20;;;;;;;89.65;42.67;;;;;;;3.02;68.34;102040.56;4872051;29;20033;-78
2021/01/30 04:07:48;;;;;;;85.00;43.15;;;;;;;3.01;67.37;102036.13;4887927;29;20178;-78
2021/01/30 04:10:24;;;;;;;75.63;44.10;;;;;;;2.97;66.80;102046.53;4877956;29;20043;-79
2021/01/30 04:12:51;;;;;;;78.75;40.22;;;;;;;2.16;66.57;101918.50;4880828;29;20040;-78
2021/01/30 04:15:26;;;;;;;78.80;41.38;;;;;;;2.64;67.66;102018.22;4887586;29;20033;-79
2021/01/30 04:17:53;;;;;;;89.65;44.67;;;;;;;2.59;67.55;102016.88;4879658;29;20060;-79
2021/01/30 04:20:20;;;;;;;92.93;40.78;;;;;;;2.40;66.87;101978.84;4882837;29;20033;-78
2021/01/30 04:22:47;;;;;;;84.50;41.63;;;;;;;2.79;67.08;102046.66;4878185;29;20089;-82
2021/01/30 04:25:17;;;;;;;86.03;41.63;;;;;;;1.77;67.11;101900.72;4880452;29;20040;-77
2021/01/30 04:27:45;;;;;;;84.97;44.83;;;;;;;2.48;67.34;102019.06;4859689;29;20055;-80
2021/01/30 04:30:14;;;;;;;90.22;44.30;;;;;;;2.90;67.13;102066.53;4861532;29;20072;-78
2021/01/30 04:32:41;;;;;;;91.07;45.57;;;;;;;2.92;67.30;102067.22;4870708;29;20140;-77
2021/01/30 04:35:09;;;;;;;88.95;47.05;;;;;;;2.26;67.05;101922.97;4879103;29;20056;-77
2021/01/30 04:37:36;;;;;;;80.55;41.70;;;;;;;2.67;66.44;101964.06;4876305;29;20122;-77
2021/01/30 04:40:06;;;;;;;63.55;39.92;;;;;;;3.23;66.35;102047.44;4862310;29;20032;-77
2021/01/30 04:43:14;;;;;;;76.27;39.87;;;;;;;3.09;65.93;102000.56;4882710;29;20104;-77
2021/01/30 04:46:00;;;;;;;91.90;42.95;;;;;;;3.26;65.98;102078.06;4883555;29;20076;-77
2021/01/30 04:48:39;;;;;;;73.28;40.55;;;;;;;3.18;66.39;102079.94;4869274;29;20097;-79
2021/01/30 04:51:31;;;;;;;80.53;40.13;;;;;;;2.91;66.56;102046.34;4876845;29;20069;-76
2021/01/30 04:54:01;;;;;;;88.07;40.95;;;;;;;2.97;67.43;102097.69;4880829;29;20107;-79
2021/01/30 04:56:45;;;;;;;61.67;31.08;;;;;;;2.88;68.00;102102.25;4879766;29;20047;-81
2021/01/30 04:59:30;;;;;;;83.85;43.90;;;;;;;3.03;67.93;102104.38;4885835;29;20031;-78
2021/01/30 05:02:00;;;;;;;78.07;43.60;;;;;;;2.91;67.47;102101.06;4883189;29;20036;-80
2021/01/30 05:04:47;;;;;;;95.55;46.47;;;;;;;2.44;67.56;102051.31;4881210;29;20055;-81
2021/01/30 05:07:23;;;;;;;88.30;48.33;;;;;;;2.72;68.26;102103.03;4878383;29;20443;-84
2021/01/30 05:09:50;;;;;;;100.97;50.20;;;;;;;2.84;67.33;102093.53;4882758;29;20041;-82
2021/01/30 05:12:25;;;;;;;109.43;49.90;;;;;;;1.40;67.96;101863.69;4879563;29;20053;-79
2021/01/30 05:15:05;;;;;;;96.20;50.50;;;;;;;1.38;67.63;101837.56;4882186;29;20064;-81
2021/01/30 05:17:43;;;;;;;103.75;48.50;;;;;;;2.50;67.99;102017.00;4880248;29;20040;-83
2021/01/30 05:20:11;;;;;;;108.78;53.58;;;;;;;2.75;67.81;102061.69;4881375;29;20033;-78
2021/01/30 05:22:42;;;;;;;93.68;48.83;;;;;;;2.03;68.17;101957.19;4863786;29;20526;-78
2021/01/30 05:25:20;;;;;;;99.57;50.33;;;;;;;3.03;67.92;102091.53;4882062;29;20032;-79
2021/01/30 05:28:24;;;;;;;92.03;49.20;;;;;;;3.07;66.53;102101.13;4881656;29;20088;-79
2021/01/30 05:30:57;;;;;;;92.50;45.63;;;;;;;3.06;66.52;102093.06;4868415;29;20055;-78
2021/01/30 05:33:54;;;;;;;106.15;45.17;;;;;;;2.26;65.94;101981.19;4880029;29;20117;-89
2021/01/30 05:36:51;;;;;;;91.03;46.75;;;;;;;2.86;65.90;102066.00;4860610;29;20112;-86
2021/01/30 05:39:27;;;;;;;96.57;46.28;;;;;;;3.04;65.71;102101.47;4874217;29;20048;-85
2021/01/30 05:42:04;;;;;;;88.07;47.78;;;;;;;2.67;65.28;102054.31;4881729;29;20029;-85
2021/01/30 05:44:53;;;;;;;89.60;44.22;;;;;;;3.11;65.61;102124.41;4880220;29;20029;-85
2021/01/30 05:47:31;;;;;;;93.25;47.28;;;;;;;2.95;66.05;102124.31;4876604;29;20058;-80
2021/01/30 05:50:23;;;;;;;86.28;44.13;;;;;;;1.64;64.93;101893.00;4877965;29;20029;-86
2021/01/30 05:52:50;;;;;;;86.28;44.17;;;;;;;3.23;65.46;102121.34;4875826;29;20049;-84
2021/01/30 05:55:32;;;;;;;85.78;44.53;;;;;;;2.93;65.35;102097.16;4860652;29;20084;-79
2021/01/30 05:58:12;;;;;;;83.20;45.92;;;;;;;2.66;66.50;102076.38;4873563;29;20037;-86
2021/01/30 06:00:40;;;;;;;83.90;44.85;;;;;;;1.72;65.45;101885.88;4862735;29;20037;-85
2021/01/30 06:03:13;;;;;;;79.50;44.97;;;;;;;2.35;64.59;101997.63;4878733;29;20077;-87
2021/01/30 06:05:48;;;;;;;91.63;46.97;;;;;;;3.24;64.47;102139.47;4861367;29;20381;-87
2021/01/30 06:08:30;;;;;;;86.10;44.53;;;;;;;3.32;63.98;102142.22;4879720;29;20112;-82
2021/01/30 06:11:14;;;;;;;100.35;50.47;;;;;;;3.29;64.42;102132.47;4865453;29;20491;-83
2021/01/30 06:14:02;;;;;;;79.05;43.85;;;;;;;3.18;61.83;102148.34;4884474;29;20032;-86
2021/01/30 06:16:38;;;;;;;68.07;38.20;;;;;;;3.25;57.51;102130.25;4883008;29;20029;-86
2021/01/30 06:19:20;;;;;;;61.33;36.25;;;;;;;3.26;54.94;102137.41;4876887;29;20065;-84
2021/01/30 06:21:50;;;;;;;63.17;34.38;;;;;;;3.47;55.17;102128.75;4863518;29;20037;-88
2021/01/30 06:24:30;;;;;;;76.18;38.17;;;;;;;3.04;55.98;102057.69;4864703;29;20033;-86
2021/01/30 06:27:02;;;;;;;71.13;35.60;;;;;;;1.34;54.35;101787.91;4876592;29;20041;-83
2021/01/30 06:29:43;;;;;;;56.05;30.80;;;;;;;2.67;53.42;101996.03;4870138;29;20120;-92
2021/01/30 06:32:24;;;;;;;60.42;30.88;;;;;;;3.62;52.72;102177.41;4888748;29;20033;-91
2021/01/30 06:35:13;;;;;;;59.38;26.80;;;;;;;3.60;49.05;102172.09;4868258;29;20041;-90
2021/01/30 06:37:45;;;;;;;65.88;29.33;;;;;;;3.46;47.84;102175.47;4858965;29;20020;-90
2021/01/30 06:40:18;;;;;;;59.30;26.40;;;;;;;3.49;49.21;102180.59;4863400;29;20037;-89
2021/01/30 06:42:47;;;;;;;61.03;25.80;;;;;;;3.15;50.74;102144.94;4877745;29;20034;-95
2021/01/30 06:45:26;;;;;;;59.55;26.85;;;;;;;3.41;49.84;102189.66;4865005;29;20491;-90
2021/01/30 06:47:53;;;;;;;56.60;28.33;;;;;;;3.29;49.69;102186.38;4874457;29;20047;-90
2021/01/30 06:50:31;;;;;;;60.53;33.05;;;;;;;2.97;54.22;102141.47;4865223;29;20145;-91
2021/01/30 06:53:28;;;;;;;70.70;36.13;;;;;;;3.33;57.04;102198.69;4879273;29;20394;-89
2021/01/30 06:56:10;;;;;;;76.90;38.78;;;;;;;3.42;59.61;102226.97;4864327;29;20068;-90
2021/01/30 06:58:40;;;;;;;92.20;43.83;;;;;;;3.13;61.25;102218.16;4873901;29;20535;-90
2021/01/30 07:01:18;;;;;;;96.65;43.47;;;;;;;2.86;62.00;102209.09;4865153;29;20037;-89
2021/01/30 07:04:13;;;;;;;88.43;43.33;;;;;;;2.92;62.99;102210.31;4865189;29;20048;-88
2021/01/30 07:07:07;;;;;;;79.15;42.85;;;;;;;2.69;64.22;102219.09;4882919;29;20501;-89
2021/01/30 07:10:00;;;;;;;87.18;42.75;;;;;;;2.67;64.98;102220.28;4880008;29;20033;-89
2021/01/30 07:12:40;;;;;;;85.57;41.80;;;;;;;2.60;65.10;102220.94;4856774;29;20509;-82
2021/01/30 07:15:13;;;;;;;81.90;42.08;;;;;;;0.90;66.16;101979.75;4878162;29;20033;-86
2021/01/30 07:17:39;;;;;;;81.72;42.58;;;;;;;2.48;66.93;102227.66;4871874;29;20404;-82
2021/01/30 07:20:20;;;;;;;83.60;47.53;;;;;;;1.49;68.73;102099.34;4884602;29;20024;-85
2021/01/30 07:23:05;;;;;;;75.90;42.47;;;;;;;2.18;68.80;102216.16;4862814;29;20037;-84
2021/01/30 07:25:52;;;;;;;71.85;41.78;;;;;;;1.53;69.16;102127.19;4876002;29;20064;-82
2021/01/30 07:28:43;;;;;;;77.03;43.45;;;;;;;2.25;71.29;102239.09;4876744;29;20026;-90
2021/01/30 07:31:19;;;;;;;89.63;44.55;;;;;;;2.11;72.60;102256.06;4879357;29;20135;-79
2021/01/30 07:33:53;;;;;;;76.32;43.88;;;;;;;1.92;74.04;102266.13;4864475;29;20056;-83
2021/01/30 07:36:43;;;;;;;83.25;45.45;;;;;;;1.95;74.48;102275.91;4880060;29;20025;-83
2021/01/30 07:39:27;;;;;;;78.97;43.10;;;;;;;1.40;74.29;102169.34;4859915;29;20045;-80
2021/01/30 07:42:05;;;;;;;88.05;43.70;;;;;;;1.55;74.14;102166.09;4874602;29;20065;-82
2021/01/30 07:44:50;;;;;;;84.25;43.33;;;;;;;2.08;72.98;102270.03;4860840;29;20056;-79
2021/01/30 07:47:47;;;;;;;75.90;42.50;;;;;;;1.95;73.97;102287.66;4880604;29;20069;-79
2021/01/30 07:50:22;;;;;;;78.22;44.10;;;;;;;2.03;73.80;102289.63;4885194;29;20033;-81
2021/01/30 07:53:12;;;;;;;87.25;44.22;;;;;;;1.26;73.55;102172.59;4873209;29;20025;-81
2021/01/30 07:55:48;;;;;;;;;;;;;;;2.07;73.48;102295.66;4879246;29;20451;-80
2021/01/30 07:58:42;;;;;;;80.03;43.95;;;;;;;1.35;73.82;102167.09;4854436;29;20338;-80
2021/01/30 08:01:45;;;;;;;90.65;47.08;;;;;;;2.03;75.17;102295.94;4853645;29;20414;-80
2021/01/30 08:04:12;;;;;;;82.22;44.25;;;;;;;1.70;77.16;102305.66;4881722;29;20494;-81
2021/01/30 08:06:42;;;;;;;92.38;45.38;;;;;;;1.73;76.94;102300.75;4878211;29;20416;-81
2021/01/30 08:09:20;;;;;;;72.20;42.35;;;;;;;1.64;75.22;102301.66;4878079;29;20029;-82
2021/01/30 08:11:55;;;;;;;84.47;45.10;;;;;;;0.97;73.19;102187.25;4861528;29;20539;-80
2021/01/30 08:14:59;;;;;;;76.00;38.88;;;;;;;1.58;73.25;102272.22;4877770;29;20037;-80
2021/01/30 08:17:40;;;;;;;73.88;38.33;;;;;;;1.71;71.00;102278.19;4854302;29;20116;-79
2021/01/30 08:20:33;;;;;;;72.78;39.88;;;;;;;1.79;71.46;102304.75;4880902;29;20040;-81
2021/01/30 08:23:08;;;;;;;80.90;40.22;;;;;;;1.27;72.01;102234.34;4828745;29;20084;-79
2021/01/30 08:26:02;;;;;;;72.97;40.00;;;;;;;1.62;71.68;102303.69;4853886;29;20049;-78
2021/01/30 08:28:34;;;;;;;72.72;38.50;;;;;;;1.03;70.71;102178.47;4877330;29;20768;-81
2021/01/30 08:31:01;;;;;;;78.82;39.80;;;;;;;1.18;70.99;102242.41;4875927;29;20067;-80
2021/01/30 08:34:02;;;;;;;72.55;39.53;;;;;;;1.69;70.92;102314.84;4875883;29;20039;-81
2021/01/30 08:36:39;;;;;;;86.13;39.60;;;;;;;1.41;72.14;102318.44;4875793;29;20029;-81
2021/01/30 08:39:19;;;;;;;73.47;38.70;;;;;;;1.52;70.06;102325.56;4876756;29;20036;-81
2021/01/30 08:42:03;;;;;;;76.13;37.15;;;;;;;0.71;71.03;102191.50;4876243;29;20017;-79
2021/01/30 08:44:36;;;;;;;79.07;41.05;;;;;;;1.27;71.16;102322.53;4876490;29;20093;-78
2021/01/30 08:47:13;;;;;;;75.65;41.88;;;;;;;0.65;71.99;102220.22;4875939;29;20021;-79
2021/01/30 08:49:41;;;;;;;78.03;40.80;;;;;;;0.38;71.68;102167.38;4876180;29;20057;-79
2021/01/30 08:52:14;;;;;;;80.53;41.65;;;;;;;1.29;72.72;102322.34;4876361;29;20044;-81
2021/01/30 08:54:42;;;;;;;69.35;41.65;;;;;;;1.24;73.65;102328.28;4878323;29;20033;-79
2021/01/30 08:57:33;;;;;;;74.82;41.70;;;;;;;1.22;73.79;102331.16;4875978;29;20040;-79
2021/01/30 09:00:10;;;;;;;78.10;43.03;;;;;;;0.78;73.73;102296.25;4876011;29;20040;-81
2021/01/30 09:02:36;;;;;;;83.45;39.97;;;;;;;0.89;72.30;102333.38;4875470;29;20049;-81
2021/01/30 09:05:20;;;;;;;78.32;39.50;;;;;;;1.01;71.50;102338.69;4876573;29;20041;-82
2021/01/30 09:07:58;;;;;;;73.15;37.83;;;;;;;0.93;71.78;102334.84;4878630;29;20033;-82
2021/01/30 09:10:29;;;;;;;71.70;39.83;;;;;;;0.95;71.67;102329.25;4880728;29;20089;-84
2021/01/30 09:13:04;;;;;;;87.88;42.00;;;;;;;0.85;71.53;102337.44;4876995;29;20514;-80
2021/01/30 09:15:43;;;;;;;70.68;40.00;;;;;;;0.87;72.37;102338.13;4876486;29;20475;-81
2021/01/30 09:18:34;;;;;;;65.45;39.17;;;;;;;0.81;72.23;102344.16;4875421;29;20041;-82
2021/01/30 09:21:01;;;;;;;86.22;43.08;;;;;;;0.80;72.50;102353.38;4877569;29;20036;-81
2021/01/30 09:23:31;;;;;;;107.55;43.28;;;;;;;0.82;72.30;102362.25;4871634;29;20033;-81
2021/01/30 09:26:06;;;;;;;102.50;45.67;;;;;;;0.73;72.19;102368.56;4879013;29;20029;-80
2021/01/30 09:28:34;;;;;;;70.72;37.90;;;;;;;-0.22;73.11;102222.03;4859059;29;20044;-81
2021/01/30 09:31:12;;;;;;;75.95;40.05;;;;;;;0.66;73.74;102374.59;4861961;29;20045;-86
2021/01/30 09:33:57;;;;;;;87.25;41.75;;;;;;;0.63;74.04;102391.25;4862219;29;20491;-89
2021/01/30 09:36:31;;;;;;;75.82;39.33;;;;;;;0.55;73.77;102350.22;4844658;29;20045;-79
2021/01/30 09:39:01;;;;;;;76.93;39.88;;;;;;;0.18;74.03;102316.34;4860685;29;20029;-80
2021/01/30 09:41:32;;;;;;;;;;;;;;;0.67;74.60;102398.13;4859001;29;20037;-84
2021/01/30 09:44:16;;;;;;;83.57;36.90;;;;;;;0.79;72.53;102392.53;4856681;29;20289;-80
2021/01/30 09:46:46;;;;;;;86.43;40.25;;;;;;;-1.02;73.07;102106.78;4857838;29;20552;-81
2021/01/30 09:49:43;;;;;;;86.47;42.53;;;;;;;0.78;74.39;102405.31;4857813;29;20037;-79
2021/01/30 09:52:19;;;;;;;76.78;41.08;;;;;;;0.06;74.69;102312.06;4853450;29;20034;-79
2021/01/30 09:54:51;;;;;;;75.90;40.10;;;;;;;0.28;73.95;102348.22;4843060;29;20038;-79
2021/01/30 09:57:25;;;;;;;76.88;40.45;;;;;;;-0.31;74.17;102259.13;4842362;29;20116;-79
2021/01/30 10:00:08;;;;;;;79.78;41.00;;;;;;;-0.43;72.39;102198.50;4855528;29;20076;-78
2021/01/30 10:02:35;;;;;;;67.07;37.85;;;;;;;0.47;70.12;102336.47;4840902;29;20042;-88
2021/01/30 10:05:14;;;;;;;78.20;38.00;;;;;;;0.46;68.96;102330.16;4857057;29;20033;-89
2021/01/30 10:07:42;;;;;;;70.72;38.05;;;;;;;0.17;69.33;102275.66;4857761;29;20500;-90
2021/01/30 10:10:25;;;;;;;77.40;38.42;;;;;;;1.02;68.92;102404.00;4844924;29;20033;-87
2021/01/30 10:12:53;;;;;;;77.40;37.58;;;;;;;1.10;68.19;102408.72;4858221;29;20124;-77
2021/01/30 10:15:34;;;;;;;83.93;39.63;;;;;;;0.36;68.13;102297.44;4855907;29;20484;-78
2021/01/30 10:18:07;;;;;;;99.50;40.35;;;;;;;1.09;67.41;102412.47;4857853;29;20029;-78
2021/01/30 10:20:51;;;;;;;67.50;36.70;;;;;;;1.01;67.91;102409.63;4857443;29;20113;-78
2021/01/30 10:23:53;;;;;;;75.18;37.95;;;;;;;1.02;68.00;102397.69;4855005;29;20038;-78
2021/01/30 10:26:24;;;;;;;69.05;38.30;;;;;;;0.82;67.95;102351.34;4826059;29;20141;-79
2021/01/30 10:28:55;;;;;;;75.13;41.25;;;;;;;0.68;68.89;102345.34;4860393;29;20444;-78
2021/01/30 10:31:34;;;;;;;78.82;42.67;;;;;;;0.71;69.96;102326.97;4862923;29;20046;-80
2021/01/30 10:34:17;;;;;;;86.13;45.83;;;;;;;0.70;70.60;102347.06;4861656;29;20127;-81
2021/01/30 10:36:56;;;;;;;80.25;41.33;;;;;;;0.91;71.73;102394.13;4859706;29;20033;-80
2021/01/30 10:39:25;;;;;;;89.22;40.97;;;;;;;1.04;72.07;102414.75;4853266;29;20025;-84
2021/01/30 10:41:56;;;;;;;83.32;41.72;;;;;;;-0.29;71.22;102199.97;4870379;29;20041;-88
2021/01/30 10:44:30;;;;;;;77.53;39.65;;;;;;;0.12;68.99;102273.38;4845542;29;20029;-86
2021/01/30 10:47:03;;;;;;;73.18;40.00;;;;;;;0.50;69.45;102363.41;4854186;29;20041;-88
2021/01/30 10:49:37;;;;;;;67.68;36.22;;;;;;;1.01;68.45;102431.44;4852645;29;20081;-93
2021/01/30 10:52:12;;;;;;;62.00;37.05;;;;;;;1.03;67.33;102415.78;4870944;29;20033;-87
2021/01/30 10:54:42;;;;;;;57.97;35.47;;;;;;;0.40;67.85;102328.84;4842788;29;20045;-87
2021/01/30 10:57:18;;;;;;;68.90;38.60;;;;;;;1.12;65.59;102417.63;4856376;29;20037;-89
2021/01/30 10:59:54;;;;;;;77.72;37.85;;;;;;;1.17;66.17;102420.78;4856793;29;20045;-91
2021/01/30 11:02:35;;;;;;;64.90;34.97;;;;;;;1.08;65.16;102425.25;4849996;29;20057;-86
2021/01/30 11:05:20;;;;;;;65.88;36.38;;;;;;;0.94;66.56;102432.00;4861629;29;20173;-88
2021/01/30 11:08:00;;;;;;;74.45;39.28;;;;;;;1.05;65.22;102439.19;4862915;29;20041;-89
2021/01/30 11:10:43;;;;;;;48.47;26.52;;;;;;;0.33;61.56;102318.66;4855121;29;20034;-89
2021/01/30 11:13:19;;;;;;;72.63;37.97;;;;;;;1.00;63.66;102451.53;4842136;29;20041;-80
2021/01/30 11:16:04;;;;;;;65.90;33.58;;;;;;;0.96;62.19;102450.97;4861801;29;20025;-81
2021/01/30 11:18:38;;;;;;;63.70;32.53;;;;;;;-1.92;61.87;101940.97;4859316;29;20482;-82
2021/01/30 11:21:13;;;;;;;64.95;33.13;;;;;;;-1.15;60.87;102130.66;4853398;29;20025;-80
2021/01/30 11:24:03;;;;;;;;;;;;;;;;;;;;;
2021/01/30 11:26:43;;;;;;;65.57;29.98;;;;;;;0.45;60.55;102373.88;4858657;29;20033;-83
2021/01/30 11:29:39;;;;;;;73.10;33.42;;;;;;;1.01;60.83;102453.25;4847231;29;20132;-79
2021/01/30 11:32:13;;;;;;;68.88;36.35;;;;;;;0.10;63.36;102351.63;4871681;29;20040;-80
2021/01/30 11:34:41;;;;;;;65.45;33.53;;;;;;;0.03;63.33;102372.25;4875708;29;20071;-80
2021/01/30 11:37:10;;;;;;;82.03;35.85;;;;;;;0.50;61.94;102407.03;4859003;29;20033;-83
2021/01/30 11:39:37;;;;;;;68.78;33.17;;;;;;;0.11;62.40;102365.09;4864809;29;20021;-80
2021/01/30 11:42:05;;;;;;;60.28;33.92;;;;;;;-0.61;61.33;102230.97;4879028;29;20123;-82
2021/01/30 11:44:32;;;;;;;64.88;36.22;;;;;;;0.89;61.95;102467.03;4874732;29;20028;-81
2021/01/30 11:46:59;;;;;;;72.60;33.38;;;;;;;0.11;62.14;102339.72;4875868;29;20395;-82
2021/01/30 11:49:26;;;;;;;63.63;33.67;;;;;;;0.44;62.04;102418.50;4857005;29;20040;-79
2021/01/30 11:51:53;;;;;;;63.83;33.53;;;;;;;0.77;62.84;102460.84;4877221;29;20025;-81
2021/01/30 11:54:20;;;;;;;62.65;34.30;;;;;;;0.15;62.86;102365.69;4875926;29;20199;-81